Time;durP1;ratioP1;P1;durP2;ratioP2;P2;SDS_P1;SDS_P2;PMS_P1;PMS_P2;Temp;Humidity;BMP_temperature;BMP_pressure;BME280_temperature;BME280_humidity;BME280_pressure;Samples;Min_cycle;Max_cycle;Signal;HPM_P1;HPM_P2
2023/07/07 00:01:04;;;;;;;3.17;1.63;;;19.90;64.00;;;;;;5034162;28;20278;-71
2023/07/07 00:03:30;;;;;;;1.80;1.70;;;19.90;64.10;;;;;;5048674;28;20459;-71
2023/07/07 00:05:56;;;;;;;2.07;1.63;;;19.80;64.20;;;;;;5044962;28;21031;-71
2023/07/07 00:08:22;;;;;;;2.90;1.90;;;19.80;64.10;;;;;;5044843;28;20232;-71
2023/07/07 00:10:48;;;;;;;1.73;1.63;;;19.80;64.20;;;;;;5041834;28;20470;-71
2023/07/07 00:13:15;;;;;;;1.83;1.60;;;19.70;64.10;;;;;;5035270;28;20678;-71
2023/07/07 00:15:44;;;;;;;3.27;1.70;;;19.70;64.80;;;;;;5040760;28;20227;-71
2023/07/07 00:18:17;;;;;;;4.23;2.30;;;19.70;64.50;;;;;;5042931;28;20529;-71
2023/07/07 00:20:43;;;;;;;1.97;1.80;;;19.80;64.30;;;;;;5043285;28;20447;-71
2023/07/07 00:23:09;;;;;;;1.47;1.37;;;19.80;64.20;;;;;;5041436;28;20475;-71
2023/07/07 00:25:34;;;;;;;2.57;2.10;;;19.80;64.60;;;;;;5043537;28;20227;-70
2023/07/07 00:28:00;;;;;;;2.30;1.80;;;19.70;64.30;;;;;;5036949;28;20937;-71
2023/07/07 00:30:26;;;;;;;2.57;1.70;;;19.70;64.30;;;;;;5038482;28;20219;-71
2023/07/07 00:32:52;;;;;;;2.20;1.77;;;19.60;64.30;;;;;;5042071;28;20832;-70
2023/07/07 00:35:17;;;;;;;3.33;2.23;;;19.50;64.70;;;;;;5041855;28;20229;-71
2023/07/07 00:37:43;;;;;;;1.67;1.57;;;19.50;64.80;;;;;;5039407;28;20761;-71
2023/07/07 00:40:10;;;;;;;2.13;1.80;;;19.60;64.90;;;;;;5043331;28;20216;-70
2023/07/07 00:42:35;;;;;;;1.90;1.70;;;19.60;64.70;;;;;;5054609;28;20730;-71
2023/07/07 00:45:13;;;;;;;3.40;1.97;;;19.50;64.70;;;;;;5044150;28;20451;-71
2023/07/07 00:47:53;;;;;;;3.70;1.63;;;19.50;64.70;;;;;;5037935;28;20683;-71
2023/07/07 00:50:23;;;;;;;1.93;1.67;;;19.50;64.90;;;;;;5037373;28;20498;-71
2023/07/07 00:52:49;;;;;;;3.07;2.13;;;19.40;65.00;;;;;;5031554;28;20990;-71
2023/07/07 00:55:28;;;;;;;3.93;1.97;;;19.40;65.00;;;;;;5027856;28;20452;-71
2023/07/07 00:57:54;;;;;;;3.67;2.10;;;19.30;65.20;;;;;;5033403;28;20486;-71
2023/07/07 01:00:20;;;;;;;2.03;1.60;;;19.30;65.30;;;;;;5038127;28;20468;-71
2023/07/07 01:02:55;;;;;;;1.97;1.60;;;19.30;65.30;;;;;;5051302;28;20472;-71
2023/07/07 01:05:23;;;;;;;1.97;1.87;;;19.30;65.40;;;;;;5036174;28;21109;-71
2023/07/07 01:07:51;;;;;;;1.80;1.70;;;19.30;65.50;;;;;;5040641;28;20443;-70
2023/07/07 01:10:18;;;;;;;2.57;2.00;;;19.20;65.50;;;;;;5032448;28;20452;-71
2023/07/07 01:12:45;;;;;;;2.93;1.80;;;19.20;65.60;;;;;;5043367;28;20446;-71
2023/07/07 01:15:11;;;;;;;4.20;1.93;;;19.10;65.90;;;;;;5042226;28;20478;-73
2023/07/07 01:17:53;;;;;;;1.90;1.80;;;19.10;66.20;;;;;;5045552;28;20885;-71
2023/07/07 01:20:31;;;;;;;1.67;1.57;;;19.00;66.20;;;;;;5063640;28;20221;-71
2023/07/07 01:23:15;;;;;;;1.90;1.80;;;19.00;66.40;;;;;;5048752;28;20588;-70
2023/07/07 01:26:29;;;;;;;2.20;2.00;;;19.00;66.40;;;;;;5042267;28;20987;-71
2023/07/07 01:28:58;;;;;;;2.57;2.20;;;19.00;66.40;;;;;;4977255;28;21023;-70
2023/07/07 01:31:32;;;;;;;1.90;1.63;;;18.90;66.50;;;;;;5038584;28;20451;-71
2023/07/07 01:34:01;;;;;;;1.70;1.53;;;18.70;66.40;;;;;;5033218;28;20541;-71
2023/07/07 01:36:26;;;;;;;4.33;1.70;;;18.60;66.80;;;;;;5037479;28;20447;-70
2023/07/07 01:38:52;;;;;;;1.83;1.73;;;18.70;67.30;;;;;;5041288;28;20460;-71
2023/07/07 01:41:40;;;;;;;1.90;1.80;;;18.70;67.10;;;;;;5039654;28;20217;-70
2023/07/07 01:44:27;;;;;;;5.37;2.20;;;18.80;67.30;;;;;;5044689;28;20323;-71
2023/07/07 01:47:00;;;;;;;2.50;2.00;;;18.70;67.20;;;;;;5032287;28;20472;-70
2023/07/07 01:49:27;;;;;;;3.60;2.20;;;18.60;67.40;;;;;;5047451;28;20467;-71
2023/07/07 01:52:11;;;;;;;2.03;1.80;;;18.60;67.40;;;;;;5043981;28;20471;-70
2023/07/07 01:54:43;;;;;;;2.20;2.00;;;18.60;67.30;;;;;;5048206;28;20466;-70
2023/07/07 01:57:11;;;;;;;1.83;1.70;;;18.60;67.40;;;;;;5031014;28;20455;-70
2023/07/07 01:59:40;;;;;;;2.93;2.20;;;18.60;67.30;;;;;;5029530;28;20479;-70
2023/07/07 02:02:06;;;;;;;3.00;1.80;;;18.60;67.30;;;;;;5029395;28;20981;-70
2023/07/07 02:04:32;;;;;;;2.27;2.10;;;18.60;67.60;;;;;;5037896;28;20471;-70
2023/07/07 02:06:58;;;;;;;1.80;1.47;;;18.50;67.60;;;;;;5033619;28;21046;-70
2023/07/07 02:09:23;;;;;;;1.80;1.70;;;18.50;67.40;;;;;;5034430;28;20273;-68
2023/07/07 02:11:49;;;;;;;2.10;1.50;;;18.50;67.50;;;;;;5038461;28;20219;-69
2023/07/07 02:14:15;;;;;;;1.80;1.57;;;18.50;67.50;;;;;;5033096;28;22072;-70
2023/07/07 02:16:40;;;;;;;1.80;1.70;;;18.50;67.50;;;;;;5041162;28;20299;-70
2023/07/07 02:19:06;;;;;;;2.60;2.30;;;18.40;67.70;;;;;;5025661;28;20236;-71
2023/07/07 02:21:32;;;;;;;2.30;2.10;;;18.40;67.80;;;;;;5034130;28;20240;-71
2023/07/07 02:23:57;;;;;;;2.27;2.07;;;18.30;67.90;;;;;;5026155;28;20224;-70
2023/07/07 02:26:23;;;;;;;2.67;1.80;;;18.30;68.00;;;;;;5049397;28;20691;-70
2023/07/07 02:28:48;;;;;;;2.10;1.57;;;18.20;68.10;;;;;;5047350;28;20236;-71
2023/07/07 02:31:14;;;;;;;1.80;1.63;;;18.20;68.30;;;;;;5043426;28;20244;-71
2023/07/07 02:33:41;;;;;;;3.23;2.20;;;18.10;67.90;;;;;;5039223;28;20628;-71
2023/07/07 02:36:08;;;;;;;1.87;1.77;;;18.10;68.60;;;;;;5017648;28;20501;-71
2023/07/07 02:38:35;;;;;;;4.73;1.80;;;18.10;68.70;;;;;;5046052;28;20243;-70
2023/07/07 02:41:01;;;;;;;3.13;1.97;;;18.10;68.50;;;;;;5061434;28;20596;-70
2023/07/07 02:43:28;;;;;;;2.17;1.50;;;18.10;68.70;;;;;;5030129;28;21012;-70
2023/07/07 02:45:53;;;;;;;2.17;1.87;;;18.00;68.70;;;;;;5046878;28;20459;-70
2023/07/07 02:48:20;;;;;;;1.70;1.60;;;17.80;68.50;;;;;;5027563;28;20975;-70
2023/07/07 02:50:55;;;;;;;2.40;1.90;;;17.90;69.40;;;;;;5042416;28;20243;-69
2023/07/07 02:53:22;;;;;;;1.90;1.80;;;17.80;69.00;;;;;;5033324;28;20477;-70
2023/07/07 02:55:48;;;;;;;2.73;1.70;;;17.70;68.90;;;;;;5039616;28;20561;-71
2023/07/07 02:58:14;;;;;;;2.40;1.97;;;17.60;69.20;;;;;;5023968;28;21015;-72
2023/07/07 03:00:39;;;;;;;3.83;1.73;;;17.50;70.00;;;;;;5034578;28;20278;-70
2023/07/07 03:03:07;;;;;;;1.87;1.60;;;17.40;70.00;;;;;;5038252;28;20216;-70
2023/07/07 03:05:33;;;;;;;3.13;1.50;;;17.30;70.00;;;;;;5041518;28;20706;-69
2023/07/07 03:08:00;;;;;;;1.83;1.73;;;17.20;70.40;;;;;;5037274;28;20491;-72
2023/07/07 03:10:26;;;;;;;1.73;1.60;;;17.30;70.60;;;;;;5022751;28;20240;-71
2023/07/07 03:12:52;;;;;;;1.70;1.60;;;17.50;70.40;;;;;;5032483;28;20466;-70
2023/07/07 03:15:20;;;;;;;1.90;1.70;;;17.60;70.20;;;;;;5034720;28;20479;-71
2023/07/07 03:17:47;;;;;;;3.10;2.23;;;17.60;70.20;;;;;;5027543;28;20460;-70
2023/07/07 03:20:13;;;;;;;2.60;1.87;;;17.60;70.20;;;;;;5025671;28;20530;-70
2023/07/07 03:22:39;;;;;;;2.10;1.90;;;17.60;70.00;;;;;;5036165;28;20479;-71
2023/07/07 03:25:06;;;;;;;1.93;1.80;;;17.60;70.00;;;;;;5023490;28;20589;-70
2023/07/07 03:27:40;;;;;;;4.00;1.80;;;17.50;70.10;;;;;;5032562;28;20466;-70
2023/07/07 03:30:10;;;;;;;2.30;2.10;;;17.50;70.30;;;;;;5045669;28;20514;-70
2023/07/07 03:32:51;;;;;;;6.20;2.40;;;17.50;70.30;;;;;;5044171;28;20454;-71
2023/07/07 03:35:17;;;;;;;3.77;2.07;;;17.50;70.40;;;;;;5041601;28;20461;-70
2023/07/07 03:37:43;;;;;;;2.10;1.77;;;17.40;70.40;;;;;;5040543;28;20529;-71
2023/07/07 03:40:09;;;;;;;2.03;1.77;;;17.20;70.40;;;;;;5039219;28;20216;-71
2023/07/07 03:42:36;;;;;;;1.70;1.60;;;17.20;71.00;;;;;;5046899;28;20594;-70
2023/07/07 03:45:03;;;;;;;2.73;1.63;;;17.20;70.90;;;;;;5038001;28;20443;-70
2023/07/07 03:47:31;;;;;;;6.43;2.00;;;17.20;71.00;;;;;;5037590;28;20447;-70
2023/07/07 03:49:59;;;;;;;2.17;1.97;;;17.30;70.80;;;;;;5025382;28;20510;-70
2023/07/07 03:52:26;;;;;;;1.67;1.57;;;17.30;71.00;;;;;;5039625;28;20858;-69
2023/07/07 03:54:52;;;;;;;4.03;2.23;;;17.30;71.10;;;;;;5046649;28;20997;-70
2023/07/07 03:57:18;;;;;;;2.57;2.23;;;17.20;70.90;;;;;;5026336;28;21159;-71
2023/07/07 03:59:44;;;;;;;2.63;2.23;;;17.20;71.10;;;;;;5035998;28;20471;-69
2023/07/07 04:02:12;;;;;;;2.40;2.00;;;17.20;71.10;;;;;;5044626;28;20461;-68
2023/07/07 04:04:37;;;;;;;2.57;1.73;;;17.20;71.30;;;;;;5056630;28;20664;-70
2023/07/07 04:07:04;;;;;;;2.37;2.10;;;17.20;71.40;;;;;;5045161;28;20534;-69
2023/07/07 04:09:30;;;;;;;6.03;2.03;;;17.20;71.70;;;;;;5052617;28;20223;-70
2023/07/07 04:11:55;;;;;;;2.47;2.27;;;17.20;71.80;;;;;;5054579;28;20463;-67
2023/07/07 04:14:27;;;;;;;2.43;2.20;;;17.20;71.60;;;;;;5033093;28;20229;-70
2023/07/07 04:16:52;;;;;;;5.47;2.10;;;17.20;71.60;;;;;;5026683;28;20223;-70
2023/07/07 04:19:18;;;;;;;5.80;2.80;;;17.20;71.90;;;;;;5044557;28;20545;-70
2023/07/07 04:21:43;;;;;;;2.83;1.60;;;17.20;72.00;;;;;;5025414;28;20216;-71
2023/07/07 04:24:09;;;;;;;2.50;1.77;;;17.20;72.20;;;;;;5016601;28;20638;-71
2023/07/07 04:26:38;;;;;;;2.13;1.93;;;17.20;72.40;;;;;;5027753;28;20898;-71
2023/07/07 04:29:03;;;;;;;2.20;2.00;;;17.10;72.40;;;;;;5017797;28;20221;-70
2023/07/07 04:31:30;;;;;;;2.00;1.90;;;17.20;73.10;;;;;;5056344;28;20964;-70
2023/07/07 04:33:56;;;;;;;1.93;1.83;;;17.20;72.60;;;;;;5028019;28;20267;-70
2023/07/07 04:36:23;;;;;;;9.53;2.00;;;17.30;72.70;;;;;;5038876;28;20467;-70
2023/07/07 04:38:49;;;;;;;6.70;2.03;;;17.30;73.20;;;;;;5026633;28;20479;-71
2023/07/07 04:41:28;;;;;;;1.80;1.33;;;17.30;73.30;;;;;;5025784;28;20504;-72
2023/07/07 04:43:56;;;;;;;2.90;2.00;;;17.30;73.10;;;;;;5043559;28;20500;-71
2023/07/07 04:46:25;;;;;;;2.30;1.90;;;17.40;72.90;;;;;;5041148;28;20455;-71
2023/07/07 04:48:51;;;;;;;2.63;1.97;;;17.40;72.80;;;;;;5040723;28;20846;-68
2023/07/07 04:51:18;;;;;;;2.00;1.80;;;17.40;72.50;;;;;;5043639;28;20490;-71
2023/07/07 04:53:44;;;;;;;3.13;2.00;;;17.40;72.50;;;;;;5031330;28;20988;-69
2023/07/07 04:56:21;;;;;;;2.10;1.93;;;17.50;72.60;;;;;;5036734;28;20471;-71
2023/07/07 04:58:49;;;;;;;1.80;1.50;;;17.50;73.10;;;;;;5041489;28;20478;-71
2023/07/07 05:01:18;;;;;;;2.30;1.83;;;17.40;73.20;;;;;;5033046;28;20463;-71
2023/07/07 05:03:45;;;;;;;1.53;1.43;;;17.50;74.10;;;;;;5037019;28;20458;-69
2023/07/07 05:06:12;;;;;;;3.10;2.73;;;17.50;73.00;;;;;;5037991;28;20504;-71
2023/07/07 05:08:41;;;;;;;3.60;2.10;;;17.60;73.50;;;;;;5035346;28;20484;-71
2023/07/07 05:11:10;;;;;;;2.40;2.00;;;17.60;73.40;;;;;;5038728;28;20447;-71
2023/07/07 05:13:35;;;;;;;2.70;2.13;;;17.60;74.00;;;;;;5043286;28;20844;-70
2023/07/07 05:16:04;;;;;;;2.87;2.37;;;17.70;75.30;;;;;;5037865;28;20444;-70
2023/07/07 05:18:30;;;;;;;2.80;2.23;;;17.70;74.10;;;;;;5054423;28;20228;-69
2023/07/07 05:20:56;;;;;;;2.20;2.00;;;17.70;74.40;;;;;;5039489;28;20467;-71
2023/07/07 05:23:21;;;;;;;3.70;2.27;;;17.80;74.40;;;;;;5037094;28;20204;-70
2023/07/07 05:25:47;;;;;;;3.80;1.90;;;17.80;74.20;;;;;;5043502;28;20845;-69
2023/07/07 05:28:13;;;;;;;2.57;2.33;;;17.80;75.40;;;;;;5027192;28;20220;-70
2023/07/07 05:30:39;;;;;;;2.60;2.20;;;17.80;75.00;;;;;;5027499;28;20341;-71
2023/07/07 05:33:05;;;;;;;3.30;2.20;;;17.90;75.40;;;;;;5039501;28;20221;-71
2023/07/07 05:35:30;;;;;;;2.43;2.10;;;17.90;75.80;;;;;;5044327;28;20458;-70
2023/07/07 05:37:56;;;;;;;2.50;2.30;;;18.00;76.60;;;;;;5028384;28;20797;-70
2023/07/07 05:40:22;;;;;;;1.90;1.70;;;18.00;76.50;;;;;;5050593;28;20224;-69
2023/07/07 05:42:47;;;;;;;2.40;2.10;;;18.00;78.00;;;;;;5039514;28;20312;-69
2023/07/07 05:45:13;;;;;;;3.17;2.30;;;18.10;78.30;;;;;;5037526;28;20209;-70
2023/07/07 05:47:39;;;;;;;2.70;1.77;;;18.10;77.10;;;;;;5035052;28;20229;-70
2023/07/07 05:50:05;;;;;;;3.50;2.30;;;18.10;78.20;;;;;;5044531;28;20286;-70
2023/07/07 05:52:31;;;;;;;2.33;1.67;;;18.20;78.00;;;;;;5040751;28;20217;-71
2023/07/07 05:54:57;;;;;;;3.33;1.97;;;18.30;78.70;;;;;;5038622;28;20547;-70
2023/07/07 05:57:23;;;;;;;2.47;2.20;;;18.30;79.60;;;;;;5039050;28;20878;-70
2023/07/07 05:59:49;;;;;;;2.40;2.20;;;18.30;78.00;;;;;;5039756;28;20476;-69
2023/07/07 06:02:14;;;;;;;2.80;2.30;;;18.40;79.80;;;;;;5040341;28;20815;-69
2023/07/07 06:04:40;;;;;;;2.33;2.13;;;18.40;80.50;;;;;;5024261;28;20229;-70
2023/07/07 06:07:06;;;;;;;2.17;1.77;;;18.50;80.40;;;;;;5038601;28;20288;-71
2023/07/07 06:09:32;;;;;;;2.70;2.30;;;18.60;80.30;;;;;;5037408;28;20296;-70
2023/07/07 06:11:58;;;;;;;2.10;1.97;;;18.60;81.20;;;;;;5034891;28;21533;-69
2023/07/07 06:14:25;;;;;;;4.33;2.40;;;18.70;80.10;;;;;;5034606;28;20225;-70
2023/07/07 06:16:50;;;;;;;2.00;1.90;;;18.70;80.70;;;;;;5037881;28;20462;-70
2023/07/07 06:19:16;;;;;;;2.80;1.90;;;18.80;81.10;;;;;;5039403;28;20468;-70
2023/07/07 06:21:41;;;;;;;2.20;2.00;;;18.90;81.90;;;;;;5036654;28;20221;-70
2023/07/07 06:24:07;;;;;;;2.77;2.20;;;19.10;82.20;;;;;;5042870;28;20228;-70
2023/07/07 06:26:33;;;;;;;2.10;1.93;;;19.20;82.20;;;;;;5039265;28;20221;-70
2023/07/07 06:28:58;;;;;;;3.37;3.07;;;19.30;81.80;;;;;;5043940;28;20304;-71
2023/07/07 06:31:24;;;;;;;8.57;3.10;;;19.30;82.40;;;;;;5035850;28;20230;-70
2023/07/07 06:33:50;;;;;;;4.47;2.43;;;19.40;82.10;;;;;;5022501;28;20213;-70
2023/07/07 06:36:15;;;;;;;4.57;2.27;;;19.40;82.10;;;;;;5035222;28;20251;-70
2023/07/07 06:38:41;;;;;;;7.23;2.90;;;19.50;82.10;;;;;;5032088;28;20250;-70
2023/07/07 06:41:11;;;;;;;2.90;2.03;;;19.50;82.40;;;;;;5022232;28;20208;-70
2023/07/07 06:43:37;;;;;;;2.90;2.57;;;19.70;82.50;;;;;;5048201;28;20225;-70
2023/07/07 06:46:02;;;;;;;2.80;2.20;;;19.80;81.90;;;;;;5036542;28;20455;-70
2023/07/07 06:48:28;;;;;;;4.40;2.87;;;19.80;82.40;;;;;;5041675;28;20300;-71
2023/07/07 06:50:54;;;;;;;3.73;2.63;;;19.90;82.10;;;;;;5037013;28;20312;-70
2023/07/07 06:53:19;;;;;;;3.37;2.27;;;20.00;81.60;;;;;;5030986;28;20242;-71
2023/07/07 06:55:45;;;;;;;7.07;2.50;;;20.00;81.30;;;;;;5034299;28;20740;-70
2023/07/07 06:58:12;;;;;;;2.53;1.93;;;20.10;82.50;;;;;;5040879;28;20235;-70
2023/07/07 07:00:38;;;;;;;6.83;2.40;;;20.20;81.50;;;;;;5029650;28;20208;-71
2023/07/07 07:03:04;;;;;;;5.60;2.53;;;20.30;82.00;;;;;;5045171;28;20863;-70
2023/07/07 07:05:30;;;;;;;6.47;3.17;;;20.50;81.80;;;;;;5040311;28;20957;-71
2023/07/07 07:07:55;;;;;;;2.67;1.83;;;20.50;80.80;;;;;;5040124;28;20631;-71
2023/07/07 07:10:21;;;;;;;3.37;2.33;;;20.60;80.50;;;;;;5025316;28;20312;-71
2023/07/07 07:12:48;;;;;;;2.40;2.20;;;20.70;80.80;;;;;;5045639;28;20241;-71
2023/07/07 07:15:14;;;;;;;2.27;2.00;;;20.80;80.90;;;;;;5055739;28;20307;-70
2023/07/07 07:17:40;;;;;;;3.30;2.10;;;20.90;80.10;;;;;;5045321;28;20464;-71
2023/07/07 07:20:07;;;;;;;2.63;2.40;;;21.00;80.20;;;;;;5044564;28;20474;-71
2023/07/07 07:22:33;;;;;;;2.50;2.30;;;21.20;80.50;;;;;;5031019;28;21311;-70
2023/07/07 07:24:59;;;;;;;2.60;2.40;;;21.30;80.00;;;;;;5050987;28;20463;-71
2023/07/07 07:27:24;;;;;;;2.13;1.93;;;21.40;79.60;;;;;;5029658;28;20223;-70
2023/07/07 07:29:51;;;;;;;2.70;1.97;;;21.50;79.50;;;;;;5028503;28;20203;-71
2023/07/07 07:32:17;;;;;;;3.40;2.33;;;21.70;78.60;;;;;;5042118;28;20225;-71
2023/07/07 07:34:43;;;;;;;3.87;2.60;;;21.80;78.00;;;;;;5030219;28;20901;-70
2023/07/07 07:37:09;;;;;;;2.93;2.17;;;21.90;77.30;;;;;;5044792;28;20469;-71
2023/07/07 07:39:35;;;;;;;3.50;2.10;;;22.00;77.20;;;;;;5029151;28;20520;-71
2023/07/07 07:42:02;;;;;;;2.17;2.07;;;21.90;77.80;;;;;;5060803;28;20566;-70
2023/07/07 07:44:29;;;;;;;2.20;1.93;;;22.10;78.10;;;;;;5043759;28;20749;-71
2023/07/07 07:46:57;;;;;;;4.67;2.73;;;22.00;77.30;;;;;;5040814;28;20455;-70
2023/07/07 07:49:24;;;;;;;2.50;2.27;;;22.20;77.40;;;;;;5038137;28;20483;-70
2023/07/07 07:51:50;;;;;;;2.50;2.00;;;22.30;77.50;;;;;;5043465;28;20840;-71
2023/07/07 07:54:18;;;;;;;2.27;2.07;;;22.50;76.80;;;;;;5045073;28;20467;-71
2023/07/07 07:56:46;;;;;;;3.83;2.67;;;22.60;76.70;;;;;;5034317;28;20554;-71
2023/07/07 07:59:12;;;;;;;1.90;1.77;;;22.70;75.20;;;;;;5045367;28;20572;-72
2023/07/07 08:01:38;;;;;;;2.77;2.30;;;22.90;74.80;;;;;;5041156;28;20462;-71
2023/07/07 08:04:05;;;;;;;2.20;2.10;;;23.10;74.80;;;;;;5031862;28;20478;-71
2023/07/07 08:06:31;;;;;;;2.30;2.00;;;23.10;74.20;;;;;;5024043;28;20265;-71
2023/07/07 08:08:57;;;;;;;3.90;2.03;;;23.30;74.70;;;;;;5044351;28;20863;-71
2023/07/07 08:11:40;;;;;;;1.83;1.73;;;23.60;74.40;;;;;;5039594;28;20450;-71
2023/07/07 08:14:18;;;;;;;3.20;2.33;;;23.80;73.80;;;;;;5035438;28;20220;-71
2023/07/07 08:16:49;;;;;;;3.20;2.23;;;23.80;73.10;;;;;;5037358;28;20455;-71
2023/07/07 08:19:15;;;;;;;4.80;2.10;;;23.90;72.80;;;;;;5036048;28;20997;-71
2023/07/07 08:21:40;;;;;;;2.43;2.23;;;24.00;72.50;;;;;;5046055;28;20469;-71
2023/07/07 08:24:06;;;;;;;2.97;2.57;;;24.00;72.50;;;;;;5040693;28;20236;-71
2023/07/07 08:26:33;;;;;;;2.77;2.47;;;24.00;72.30;;;;;;5038234;28;20809;-71
2023/07/07 08:28:59;;;;;;;3.40;2.30;;;24.00;72.40;;;;;;5046978;28;20467;-71
2023/07/07 08:31:25;;;;;;;3.00;2.70;;;24.30;72.30;;;;;;5040115;28;20459;-71
2023/07/07 08:33:51;;;;;;;2.50;2.30;;;24.20;70.80;;;;;;5043002;28;20485;-71
2023/07/07 08:36:17;;;;;;;3.17;2.60;;;24.30;71.40;;;;;;5031705;28;20213;-70
2023/07/07 08:38:42;;;;;;;3.00;2.23;;;24.60;71.80;;;;;;5042807;28;20237;-71
2023/07/07 08:41:08;;;;;;;2.60;2.40;;;24.80;70.80;;;;;;5031817;28;20728;-72
2023/07/07 08:43:35;;;;;;;2.50;2.30;;;24.70;71.30;;;;;;5033000;28;20220;-71
2023/07/07 08:46:24;;;;;;;3.40;2.73;;;24.80;71.40;;;;;;5024025;28;20227;-72
2023/07/07 08:48:57;;;;;;;3.80;2.37;;;24.80;70.20;;;;;;5048078;28;20534;-71
2023/07/07 08:51:39;;;;;;;3.17;2.67;;;25.00;70.70;;;;;;5039437;28;20596;-72
2023/07/07 08:54:21;;;;;;;2.60;2.40;;;25.20;70.00;;;;;;5040059;28;20539;-71
2023/07/07 08:56:52;;;;;;;2.37;2.17;;;25.40;70.50;;;;;;5023317;28;20455;-70
2023/07/07 08:59:35;;;;;;;3.00;2.70;;;25.60;69.40;;;;;;5037510;28;20455;-71
2023/07/07 09:02:07;;;;;;;6.63;2.50;;;25.60;69.40;;;;;;5035276;28;20511;-71
2023/07/07 09:04:38;;;;;;;2.47;2.27;;;25.50;69.70;;;;;;5035296;28;20463;-71
2023/07/07 09:07:37;;;;;;;3.20;2.33;;;25.50;68.30;;;;;;5043284;28;20450;-71
2023/07/07 09:10:31;;;;;;;2.60;2.40;;;25.90;67.80;;;;;;5039128;28;20470;-71
2023/07/07 09:13:01;;;;;;;3.40;2.87;;;26.10;67.50;;;;;;5031699;28;20819;-71
2023/07/07 09:15:30;;;;;;;2.70;2.50;;;26.10;67.10;;;;;;5027108;28;20585;-71
2023/07/07 09:18:03;;;;;;;3.63;2.30;;;26.40;66.50;;;;;;5028190;28;20471;-71
2023/07/07 09:20:32;;;;;;;4.37;2.70;;;26.30;64.80;;;;;;5043082;28;20554;-71
2023/07/07 09:23:04;;;;;;;2.50;2.30;;;26.30;65.90;;;;;;5036237;28;21181;-71
2023/07/07 09:25:37;;;;;;;3.30;2.80;;;26.70;65.10;;;;;;5025091;28;20467;-71
2023/07/07 09:28:06;;;;;;;3.23;2.93;;;26.80;63.50;;;;;;5039125;28;20438;-71
2023/07/07 09:30:45;;;;;;;3.00;2.70;;;27.00;63.20;;;;;;5036786;28;20455;-72
2023/07/07 09:33:15;;;;;;;5.00;3.10;;;26.90;63.70;;;;;;5028657;28;20438;-71
2023/07/07 09:35:48;;;;;;;2.40;2.30;;;27.10;63.20;;;;;;5035106;28;20430;-71
2023/07/07 09:38:37;;;;;;;3.13;2.77;;;27.20;63.80;;;;;;5031190;28;20475;-72
2023/07/07 09:41:21;;;;;;;2.87;2.53;;;27.10;62.20;;;;;;4999078;28;21004;-72
2023/07/07 09:43:52;;;;;;;2.60;2.40;;;27.30;61.60;;;;;;5044026;28;20449;-71
2023/07/07 09:46:48;;;;;;;3.00;2.47;;;27.50;60.30;;;;;;5045000;28;20460;-71
2023/07/07 09:49:21;;;;;;;2.63;2.43;;;27.50;59.60;;;;;;5041388;28;20968;-72
2023/07/07 09:52:09;;;;;;;2.97;2.70;;;27.50;59.60;;;;;;5040114;28;20503;-71
2023/07/07 09:54:35;;;;;;;2.77;2.57;;;27.60;59.60;;;;;;5041882;28;20811;-71
2023/07/07 09:57:12;;;;;;;3.40;2.90;;;28.00;59.10;;;;;;5042483;28;20239;-72
2023/07/07 09:59:43;;;;;;;7.20;2.77;;;28.10;59.20;;;;;;5025246;28;20301;-72
2023/07/07 10:02:16;;;;;;;3.13;2.92;;;28.40;58.70;;;;;;5044109;28;20293;-71
2023/07/07 10:04:52;;;;;;;4.30;3.10;;;28.60;58.70;;;;;;5044715;28;20219;-71
2023/07/07 10:07:19;;;;;;;2.90;2.70;;;28.70;57.70;;;;;;5034604;28;20230;-72
2023/07/07 10:09:44;;;;;;;3.15;2.88;;;28.60;58.00;;;;;;5019257;28;20769;-71
2023/07/07 10:12:15;;;;;;;3.50;3.20;;;28.40;57.80;;;;;;5023971;28;20216;-71
2023/07/07 10:14:42;;;;;;;3.22;2.80;;;28.40;58.20;;;;;;5040692;28;20235;-72
2023/07/07 10:17:08;;;;;;;3.33;2.80;;;28.20;58.00;;;;;;5039861;28;20291;-72
2023/07/07 10:19:54;;;;;;;4.80;2.85;;;28.30;58.00;;;;;;5030741;28;20667;-72
2023/07/07 10:22:21;;;;;;;3.47;2.80;;;28.70;58.50;;;;;;5028090;28;20227;-72
2023/07/07 10:24:47;;;;;;;4.07;2.90;;;28.70;58.20;;;;;;5023949;28;20762;-72
2023/07/07 10:27:17;;;;;;;3.88;3.38;;;28.90;58.00;;;;;;5023866;28;20319;-72
2023/07/07 10:29:44;;;;;;;3.50;3.10;;;29.20;57.90;;;;;;5029955;28;20212;-71
2023/07/07 10:32:16;;;;;;;4.82;3.22;;;29.10;57.90;;;;;;5042249;28;20211;-71
2023/07/07 10:34:46;;;;;;;3.40;3.10;;;28.90;57.60;;;;;;5041686;28;20220;-72
2023/07/07 10:37:20;;;;;;;4.57;3.20;;;28.90;57.50;;;;;;5028762;28;20226;-72
2023/07/07 10:39:53;;;;;;;3.20;2.90;;;29.00;57.30;;;;;;5037757;28;20224;-72
2023/07/07 10:42:27;;;;;;;3.83;3.50;;;29.20;57.00;;;;;;5034704;28;20216;-73
2023/07/07 10:45:00;;;;;;;3.72;3.42;;;29.30;57.10;;;;;;5025076;28;20313;-71
2023/07/07 10:47:36;;;;;;;3.65;3.17;;;29.40;57.20;;;;;;5037910;28;20822;-71
2023/07/07 10:50:04;;;;;;;4.32;3.03;;;29.50;57.10;;;;;;5041147;28;20298;-72
2023/07/07 10:52:57;;;;;;;3.53;3.17;;;29.60;57.20;;;;;;5039794;28;20216;-71
2023/07/07 10:55:26;;;;;;;3.80;3.40;;;29.60;57.00;;;;;;5025328;28;20216;-73
2023/07/07 10:57:52;;;;;;;4.15;3.67;;;29.50;56.70;;;;;;5037603;28;20204;-71
2023/07/07 11:00:47;;;;;;;3.85;3.53;;;29.80;56.50;;;;;;5037428;28;20224;-72
2023/07/07 11:03:50;;;;;;;3.58;3.28;;;30.40;55.90;;;;;;5018463;28;20315;-72
2023/07/07 11:06:36;;;;;;;3.45;3.15;;;30.50;55.90;;;;;;5052826;28;20239;-71
2023/07/07 11:09:05;;;;;;;3.20;2.90;;;30.60;56.10;;;;;;5045902;28;20262;-72
2023/07/07 11:11:55;;;;;;;4.53;4.13;;;30.70;55.10;;;;;;5039817;28;20245;-72
2023/07/07 11:14:30;;;;;;;3.90;3.60;;;30.90;54.70;;;;;;5035562;28;20216;-72
2023/07/07 11:17:25;;;;;;;4.82;4.13;;;30.90;54.10;;;;;;5044125;28;20226;-72
2023/07/07 11:20:00;;;;;;;4.20;3.65;;;30.70;54.90;;;;;;5011370;28;20221;-72
2023/07/07 11:22:41;;;;;;;4.65;3.58;;;30.70;54.90;;;;;;5037319;28;20297;-73
2023/07/07 11:25:51;;;;;;;3.50;3.20;;;30.40;54.90;;;;;;5052831;28;20290;-72
2023/07/07 11:28:32;;;;;;;3.67;3.38;;;30.50;55.30;;;;;;5040407;28;20261;-71
2023/07/07 11:31:12;;;;;;;4.30;3.75;;;30.60;55.20;;;;;;5031817;28;20813;-70
2023/07/07 11:33:59;;;;;;;3.97;3.58;;;30.70;54.80;;;;;;5040434;28;20687;-73
2023/07/07 11:36:28;;;;;;;4.07;3.60;;;29.80;55.10;;;;;;5034512;28;20212;-71
2023/07/07 11:39:06;;;;;;;3.85;3.15;;;30.20;55.50;;;;;;5037687;28;20323;-71
2023/07/07 11:41:59;;;;;;;5.10;4.20;;;30.40;55.70;;;;;;5019036;28;20241;-72
2023/07/07 11:44:34;;;;;;;4.70;4.30;;;30.80;54.40;;;;;;5027760;28;20250;-71
2023/07/07 11:47:23;;;;;;;4.40;3.80;;;31.00;54.00;;;;;;5024363;28;20234;-73
2023/07/07 11:50:10;;;;;;;4.60;4.13;;;31.10;52.80;;;;;;5046187;28;20250;-72
2023/07/07 11:52:53;;;;;;;6.63;3.97;;;31.20;53.80;;;;;;5026395;28;20224;-72
2023/07/07 11:55:31;;;;;;;5.45;4.00;;;31.20;53.80;;;;;;5030749;28;20224;-72
2023/07/07 11:58:17;;;;;;;4.32;3.92;;;31.10;54.30;;;;;;5041621;28;20227;-72
2023/07/07 12:01:13;;;;;;;8.07;4.50;;;31.40;54.00;;;;;;5039324;28;20230;-72
2023/07/07 12:03:51;;;;;;;4.72;3.85;;;31.60;53.40;;;;;;5039887;28;20321;-73
2023/07/07 12:06:48;;;;;;;5.18;4.22;;;31.70;53.90;;;;;;5043430;28;20815;-71
2023/07/07 12:09:32;;;;;;;6.47;5.18;;;31.80;52.90;;;;;;5038568;28;20240;-72
2023/07/07 12:12:20;;;;;;;4.97;4.47;;;31.80;51.60;;;;;;5041371;28;20693;-71
2023/07/07 12:14:54;;;;;;;6.72;4.63;;;31.60;53.00;;;;;;5055364;28;20316;-72
2023/07/07 12:17:27;;;;;;;5.28;4.72;;;31.50;51.60;;;;;;5037791;28;20666;-72
2023/07/07 12:20:02;;;;;;;6.20;5.45;;;31.20;52.00;;;;;;5043197;28;20224;-73
2023/07/07 12:22:37;;;;;;;5.65;5.15;;;31.40;52.20;;;;;;5043953;28;20241;-72
2023/07/07 12:25:26;;;;;;;7.38;6.03;;;32.00;51.60;;;;;;5030379;28;20232;-72
2023/07/07 12:27:53;;;;;;;8.45;5.00;;;32.50;50.90;;;;;;5044236;28;20220;-72
2023/07/07 12:30:22;;;;;;;5.70;4.43;;;32.30;50.50;;;;;;5044031;28;20686;-72
2023/07/07 12:32:47;;;;;;;6.30;5.00;;;32.10;50.70;;;;;;5040652;28;20223;-72
2023/07/07 12:35:25;;;;;;;5.45;4.95;;;31.90;50.60;;;;;;5030777;28;20231;-73
2023/07/07 12:37:52;;;;;;;6.70;6.00;;;32.00;50.80;;;;;;5039544;28;20760;-71
2023/07/07 12:40:21;;;;;;;4.93;4.43;;;32.10;50.10;;;;;;5058091;28;20215;-72
2023/07/07 12:43:07;;;;;;;8.13;5.22;;;32.60;49.90;;;;;;5045133;28;20220;-72
2023/07/07 12:45:38;;;;;;;6.60;5.47;;;32.90;50.50;;;;;;5027882;28;20698;-72
2023/07/07 12:48:06;;;;;;;5.32;4.93;;;33.00;49.50;;;;;;5039468;28;20215;-71
2023/07/07 12:50:38;;;;;;;6.00;5.40;;;33.20;49.70;;;;;;5025553;28;20216;-73
2023/07/07 12:53:10;;;;;;;7.00;6.20;;;33.40;50.60;;;;;;5043497;28;20238;-72
2023/07/07 12:55:38;;;;;;;5.82;5.32;;;33.10;50.70;;;;;;5044563;28;20216;-72
2023/07/07 12:58:07;;;;;;;7.22;5.82;;;33.00;50.40;;;;;;5040966;28;20250;-72
2023/07/07 13:00:41;;;;;;;7.00;5.93;;;33.20;49.30;;;;;;5036051;28;20208;-72
2023/07/07 13:03:09;;;;;;;8.02;6.00;;;33.60;49.10;;;;;;5044935;28;20303;-72
2023/07/07 13:05:51;;;;;;;11.90;5.82;;;33.20;49.20;;;;;;5039954;28;20213;-72